Time;durP1;ratioP1;P1;durP2;ratioP2;P2;SDS_P1;SDS_P2;PMS_P1;PMS_P2;Temp;Humidity;BMP_temperature;BMP_pressure;BME280_temperature;BME280_humidity;BME280_pressure;Samples;Min_cycle;Max_cycle;Signal;HPM_P1;HPM_P2
2022/05/25 00:01:17;;;;;;;2.97;2.65;;;;;;;8.26;53.03;101078.06;4954761;28;20118;-77
2022/05/25 00:03:42;;;;;;;3.22;2.60;;;;;;;8.25;53.09;101075.47;4951286;28;20047;-78
2022/05/25 00:06:09;;;;;;;5.72;1.90;;;;;;;8.28;53.01;101075.41;4958126;28;20027;-78
2022/05/25 00:08:36;;;;;;;3.53;2.53;;;;;;;8.23;53.04;101080.75;4985652;28;20509;-78
2022/05/25 00:11:02;;;;;;;5.13;2.97;;;;;;;8.14;53.03;101081.84;4973182;28;20084;-80
2022/05/25 00:13:28;;;;;;;3.10;2.80;;;;;;;8.05;53.44;101084.69;4956248;28;20047;-79
2022/05/25 00:15:53;;;;;;;5.82;2.88;;;;;;;8.05;53.26;101084.69;4966885;28;20062;-77
2022/05/25 00:18:19;;;;;;;4.07;2.75;;;;;;;8.09;53.30;101086.34;4950920;28;20047;-78
2022/05/25 00:20:44;;;;;;;3.42;2.35;;;;;;;8.03;53.19;101086.47;4973256;28;20106;-77
2022/05/25 00:23:10;;;;;;;5.72;3.30;;;;;;;8.12;53.03;101094.06;4980542;28;20051;-78
2022/05/25 00:25:37;;;;;;;3.38;3.05;;;;;;;8.09;53.02;101090.66;4980724;28;20035;-79
2022/05/25 00:28:11;;;;;;;2.97;2.67;;;;;;;7.96;53.19;101092.75;4980061;28;20035;-78
2022/05/25 00:30:38;;;;;;;5.20;2.92;;;;;;;7.92;53.64;101091.13;4982576;28;20046;-79
2022/05/25 00:33:04;;;;;;;4.22;3.03;;;;;;;7.88;53.46;101105.09;4980691;28;20058;-79
2022/05/25 00:35:32;;;;;;;4.57;3.38;;;;;;;7.83;53.69;101096.56;4953579;28;20058;-76
2022/05/25 00:37:58;;;;;;;3.97;3.17;;;;;;;7.88;53.73;101098.13;4978886;28;20113;-76
2022/05/25 00:40:34;;;;;;;4.97;3.15;;;;;;;7.83;53.72;101101.75;4970423;28;20454;-78
2022/05/25 00:42:59;;;;;;;7.60;3.30;;;;;;;7.94;53.42;101102.34;4966699;28;20106;-78
2022/05/25 00:45:25;;;;;;;3.33;2.95;;;;;;;7.88;53.42;101099.88;4955924;28;20065;-80
2022/05/25 00:47:51;;;;;;;4.20;2.90;;;;;;;7.97;53.40;101096.19;4969931;28;20043;-76
2022/05/25 00:50:21;;;;;;;3.42;2.50;;;;;;;7.87;53.75;101106.84;4965378;28;20082;-78
2022/05/25 00:52:49;;;;;;;4.05;3.10;;;;;;;7.90;53.41;101108.50;4970948;28;20039;-77
2022/05/25 00:55:28;;;;;;;4.85;3.10;;;;;;;7.92;53.76;101104.13;4965463;28;20040;-77
2022/05/25 00:57:57;;;;;;;4.47;3.58;;;;;;;7.95;53.30;101114.44;4962545;28;20053;-78
2022/05/25 01:00:26;;;;;;;5.50;3.08;;;;;;;7.87;53.14;101105.97;4953509;28;20045;-76
2022/05/25 01:02:58;;;;;;;5.40;3.63;;;;;;;7.66;54.13;101113.41;4966110;28;20151;-81
2022/05/25 01:05:32;;;;;;;3.50;2.85;;;;;;;7.54;54.18;101116.28;4949521;28;20059;-83
2022/05/25 01:08:36;;;;;;;3.25;2.38;;;;;;;7.53;54.10;101104.16;4974519;28;20043;-80
2022/05/25 01:11:29;;;;;;;5.35;2.88;;;;;;;7.46;54.61;101110.41;4976605;28;20051;-80
2022/05/25 01:14:05;;;;;;;4.60;3.20;;;;;;;7.56;54.22;101105.84;4950439;28;20047;-79
2022/05/25 01:16:37;;;;;;;3.53;3.22;;;;;;;7.60;53.98;101110.97;4980617;28;20043;-77
2022/05/25 01:19:40;;;;;;;4.70;3.35;;;;;;;7.62;53.88;101100.50;4980522;28;20142;-78
2022/05/25 01:22:36;;;;;;;4.75;3.53;;;;;;;7.53;54.40;101105.03;4965367;28;20031;-81
2022/05/25 01:25:36;;;;;;;5.15;3.25;;;;;;;7.51;54.38;101108.53;4978657;28;20034;-79
2022/05/25 01:28:20;;;;;;;3.67;3.13;;;;;;;7.54;54.20;101111.09;4968189;28;20761;-78
2022/05/25 01:30:51;;;;;;;2.85;2.35;;;;;;;7.55;54.20;101118.00;4966989;28;20070;-79
2022/05/25 01:33:34;;;;;;;5.38;3.75;;;;;;;7.53;54.55;101112.84;4966758;28;20342;-79
2022/05/25 01:36:01;;;;;;;6.43;3.65;;;;;;;7.53;54.54;101109.34;4951340;28;20155;-76
2022/05/25 01:38:51;;;;;;;5.20;3.22;;;;;;;7.57;54.51;101113.63;4964260;28;20061;-79
2022/05/25 01:41:31;;;;;;;4.57;3.00;;;;;;;7.56;54.44;101117.13;4946849;28;20047;-77
2022/05/25 01:44:01;;;;;;;6.38;3.40;;;;;;;7.49;54.40;101115.53;4962750;28;20047;-79
2022/05/25 01:46:34;;;;;;;6.07;3.95;;;;;;;7.43;55.20;101115.69;4962500;28;20031;-79
2022/05/25 01:49:06;;;;;;;10.70;3.63;;;;;;;7.57;54.70;101125.78;4972155;28;20046;-80
2022/05/25 01:51:45;;;;;;;5.07;4.35;;;;;;;7.54;54.74;101131.91;4972352;28;20076;-78
2022/05/25 01:54:14;;;;;;;6.63;3.92;;;;;;;7.48;54.75;101125.06;4962960;28;20057;-77
2022/05/25 01:56:44;;;;;;;9.07;3.85;;;;;;;7.42;54.84;101129.56;4965965;28;20093;-77
2022/05/25 01:59:12;;;;;;;4.25;3.38;;;;;;;7.40;54.94;101120.94;4968771;28;20074;-78
2022/05/25 02:04:44;;;;;;;5.18;3.38;;;;;;;7.30;54.67;101126.34;4964225;28;20056;-75
2022/05/25 02:07:43;;;;;;;5.82;3.60;;;;;;;7.40;54.91;101127.00;4979568;28;20051;-80
2022/05/25 02:10:33;;;;;;;5.00;3.13;;;;;;;7.39;54.84;101134.84;4977408;28;20131;-77
2022/05/25 02:13:27;;;;;;;4.82;3.15;;;;;;;7.38;55.04;101146.13;4977992;28;20042;-79
2022/05/25 02:16:04;;;;;;;6.90;3.22;;;;;;;7.45;54.69;101137.31;4962177;28;20039;-80
2022/05/25 02:18:44;;;;;;;4.07;2.88;;;;;;;7.39;54.90;101133.09;4963738;28;20050;-82
2022/05/25 02:21:48;;;;;;;3.58;3.08;;;;;;;7.37;54.70;101134.00;4958842;28;20045;-80
2022/05/25 02:24:42;;;;;;;4.50;3.58;;;;;;;7.41;54.62;101130.47;4928056;28;20114;-82
2022/05/25 02:27:33;;;;;;;3.10;2.80;;;;;;;7.44;54.92;101138.19;4947986;28;20045;-79
2022/05/25 02:30:06;;;;;;;5.10;4.13;;;;;;;7.34;55.10;101132.34;4960099;28;20532;-79
2022/05/25 02:32:43;;;;;;;6.13;3.83;;;;;;;7.37;55.33;101131.41;4961548;28;20043;-80
2022/05/25 02:35:11;;;;;;;5.72;2.90;;;;;;;7.38;55.11;101135.72;4976251;28;20035;-77
2022/05/25 02:37:37;;;;;;;6.55;3.72;;;;;;;7.37;54.59;101131.41;4950599;28;20037;-80
2022/05/25 02:40:07;;;;;;;4.10;3.53;;;;;;;7.35;54.67;101133.19;4961475;28;20037;-78
2022/05/25 02:42:33;;;;;;;6.30;4.20;;;;;;;7.32;55.04;101134.97;4961792;28;20042;-77
2022/05/25 02:44:58;;;;;;;6.78;3.55;;;;;;;7.21;54.97;101136.09;4967806;28;20026;-78
2022/05/25 02:47:24;;;;;;;3.28;2.97;;;;;;;7.23;54.85;101134.31;4965160;28;20042;-79
2022/05/25 02:49:49;;;;;;;4.05;2.90;;;;;;;7.19;54.92;101128.31;4965134;28;20035;-79
2022/05/25 02:52:15;;;;;;;4.35;2.80;;;;;;;7.21;54.99;101141.31;4961254;28;20055;-78
2022/05/25 02:54:41;;;;;;;4.95;3.47;;;;;;;7.21;54.91;101131.75;4969861;28;20089;-79
2022/05/25 02:57:07;;;;;;;4.68;3.95;;;;;;;7.13;54.86;101133.66;4958591;28;20037;-76
2022/05/25 02:59:33;;;;;;;4.60;3.00;;;;;;;7.08;55.13;101127.69;4964472;28;20047;-77
2022/05/25 03:02:01;;;;;;;4.60;3.85;;;;;;;7.13;55.09;101133.66;4974400;28;20062;-78
2022/05/25 03:04:27;;;;;;;3.88;2.88;;;;;;;7.12;55.21;101132.81;4969701;28;20113;-79
2022/05/25 03:06:52;;;;;;;7.22;3.60;;;;;;;7.09;55.52;101147.63;4963556;28;20098;-77
2022/05/25 03:09:18;;;;;;;8.07;4.22;;;;;;;7.05;55.11;101143.38;4969950;28;20045;-77
2022/05/25 03:11:44;;;;;;;5.35;3.78;;;;;;;7.06;55.78;101148.53;4948257;28;20048;-80
2022/05/25 03:14:09;;;;;;;5.25;4.07;;;;;;;7.16;55.25;101144.00;4961514;28;21398;-78
2022/05/25 03:16:35;;;;;;;4.55;3.88;;;;;;;7.18;55.17;101150.03;4978765;28;20041;-78
2022/05/25 03:19:00;;;;;;;4.95;3.80;;;;;;;7.15;55.41;101157.88;4968405;28;20046;-76
2022/05/25 03:21:26;;;;;;;8.02;4.10;;;;;;;7.08;55.78;101158.88;4966833;28;20035;-78
2022/05/25 03:23:52;;;;;;;5.03;3.75;;;;;;;7.05;55.81;101148.56;4959657;28;20109;-77
2022/05/25 03:26:18;;;;;;;11.30;4.80;;;;;;;7.19;55.57;101159.53;4981079;28;20034;-77
2022/05/25 03:28:44;;;;;;;5.95;3.75;;;;;;;7.23;55.54;101161.19;4975247;28;20051;-78
2022/05/25 03:31:09;;;;;;;5.20;4.22;;;;;;;7.24;55.51;101151.63;4962282;28;20045;-80
2022/05/25 03:33:35;;;;;;;3.67;3.35;;;;;;;7.29;55.42;101153.25;4967782;28;20408;-77
2022/05/25 03:36:01;;;;;;;3.80;3.33;;;;;;;7.31;55.40;101167.06;4975017;28;20038;-78
2022/05/25 03:38:30;;;;;;;4.68;3.30;;;;;;;7.35;55.71;101161.78;4966467;28;20055;-78
2022/05/25 03:40:58;;;;;;;6.00;4.05;;;;;;;7.30;55.50;101164.50;4959620;28;20130;-78
2022/05/25 03:43:30;;;;;;;5.03;4.22;;;;;;;7.37;55.58;101165.22;4960492;28;20066;-75
2022/05/25 03:45:56;;;;;;;6.40;3.53;;;;;;;7.40;55.31;101166.03;4976140;28;20069;-78
2022/05/25 03:48:21;;;;;;;5.32;3.83;;;;;;;7.39;55.39;101168.66;4960853;28;20044;-77
2022/05/25 03:50:47;;;;;;;6.18;3.65;;;;;;;7.43;55.32;101167.69;4981710;28;20027;-78
2022/05/25 03:53:14;;;;;;;5.90;5.00;;;;;;;7.43;55.60;101165.94;4970682;28;20035;-78
2022/05/25 03:55:41;;;;;;;6.35;5.00;;;;;;;7.50;55.63;101164.06;4952603;28;20816;-81
2022/05/25 03:58:07;;;;;;;5.55;4.22;;;;;;;7.56;55.48;101163.97;4966266;28;20077;-78
2022/05/25 04:00:34;;;;;;;5.53;4.78;;;;;;;7.57;55.64;101165.66;4952939;28;20039;-77
2022/05/25 04:02:59;;;;;;;8.18;4.68;;;;;;;7.62;55.69;101169.00;4962205;28;20050;-77
2022/05/25 04:05:26;;;;;;;5.70;4.90;;;;;;;7.68;55.65;101160.22;4969480;28;20027;-77
2022/05/25 04:07:54;;;;;;;8.18;5.25;;;;;;;7.78;55.62;101168.66;4963585;28;20038;-80
2022/05/25 04:10:21;;;;;;;6.13;5.53;;;;;;;7.86;55.39;101171.94;4971965;28;20406;-77
2022/05/25 04:12:46;;;;;;;7.13;5.20;;;;;;;7.92;55.40;101171.78;4946455;28;20043;-77
2022/05/25 04:15:16;;;;;;;6.72;4.35;;;;;;;8.01;55.22;101171.56;4978594;28;20631;-79
2022/05/25 04:17:41;;;;;;;6.72;5.22;;;;;;;8.07;55.14;101179.22;4975044;28;20058;-79
2022/05/25 04:20:08;;;;;;;9.18;6.75;;;;;;;7.95;55.41;101177.75;4954321;28;20038;-76
2022/05/25 04:22:35;;;;;;;10.82;6.93;;;;;;;7.81;55.89;101173.81;4947623;28;20257;-79
2022/05/25 04:25:05;;;;;;;8.15;5.88;;;;;;;8.14;55.69;101167.78;4964577;28;20054;-78
2022/05/25 04:27:31;;;;;;;7.65;5.82;;;;;;;8.32;55.17;101170.81;4976000;28;20188;-78
2022/05/25 04:29:57;;;;;;;10.02;5.82;;;;;;;8.38;54.91;101172.38;4952848;28;20035;-78
2022/05/25 04:32:22;;;;;;;7.70;5.63;;;;;;;8.49;54.87;101167.75;4969016;28;20783;-78
2022/05/25 04:34:47;;;;;;;7.07;4.88;;;;;;;8.59;54.95;101169.22;4967471;28;20076;-78
2022/05/25 04:39:57;;;;;;;10.10;7.10;;;;;;;8.64;54.59;101166.47;4979942;28;20117;-76
2022/05/25 04:42:28;;;;;;;7.78;6.30;;;;;;;8.78;54.84;101166.97;4967232;28;20461;-78
2022/05/25 04:44:59;;;;;;;7.45;6.43;;;;;;;8.38;55.76;101160.19;4963868;28;20101;-78
2022/05/25 04:47:29;;;;;;;10.70;6.85;;;;;;;8.82;54.82;101166.00;4963014;28;20047;-78
2022/05/25 04:49:54;;;;;;;12.27;7.93;;;;;;;8.96;54.26;101163.88;4978273;28;20046;-77
2022/05/25 04:52:20;;;;;;;10.68;7.28;;;;;;;8.57;55.84;101171.84;4970595;28;20054;-79
2022/05/25 04:54:46;;;;;;;13.80;7.85;;;;;;;8.97;54.65;101170.78;4960419;28;20039;-78
2022/05/25 04:57:20;;;;;;;9.43;6.90;;;;;;;10.31;51.49;101168.41;4964486;28;20639;-79
2022/05/25 05:00:00;;;;;;;10.85;7.88;;;;;;;12.88;46.93;101167.91;4964059;28;20560;-77
2022/05/25 05:02:29;;;;;;;11.40;7.30;;;;;;;14.10;42.05;101168.28;4958598;28;20194;-78
2022/05/25 05:04:56;;;;;;;9.15;6.35;;;;;;;14.23;41.54;101171.16;4962532;28;20043;-78
2022/05/25 05:07:33;;;;;;;8.18;6.68;;;;;;;15.23;39.49;101176.44;4977453;28;20661;-79
2022/05/25 05:10:01;;;;;;;7.00;6.13;;;;;;;13.61;41.91;101173.31;4962920;28;20218;-79
2022/05/25 05:12:27;;;;;;;8.18;6.00;;;;;;;14.82;40.15;101165.50;4976933;28;20035;-79
2022/05/25 05:14:54;;;;;;;8.32;5.45;;;;;;;15.47;38.18;101179.50;4959522;28;20477;-79
2022/05/25 05:17:19;;;;;;;7.88;5.50;;;;;;;16.05;38.42;101174.53;4971653;28;20111;-80
2022/05/25 05:20:16;;;;;;;5.63;4.72;;;;;;;15.43;38.28;101175.34;4965625;28;20030;-79
2022/05/25 05:22:42;;;;;;;6.03;5.35;;;;;;;16.65;36.48;101174.44;4956499;28;20043;-80
2022/05/25 05:25:08;;;;;;;9.85;5.70;;;;;;;17.24;35.86;101180.44;4941455;28;20035;-80
2022/05/25 05:27:34;;;;;;;6.00;4.80;;;;;;;16.50;38.10;101170.06;4959385;28;20034;-79
2022/05/25 05:30:03;;;;;;;6.82;5.15;;;;;;;18.01;33.77;101172.00;4958760;28;20046;-80
2022/05/25 05:32:30;;;;;;;7.65;5.95;;;;;;;17.57;33.97;101168.69;4962315;28;20039;-78
2022/05/25 05:34:57;;;;;;;6.65;5.53;;;;;;;16.52;35.03;101170.84;4972729;28;20047;-81
2022/05/25 05:37:29;;;;;;;6.60;5.07;;;;;;;18.45;33.90;101169.00;4974455;28;20039;-79
2022/05/25 05:39:57;;;;;;;5.70;5.05;;;;;;;18.56;34.03;101170.03;4956541;28;20206;-79
2022/05/25 05:42:24;;;;;;;7.43;5.13;;;;;;;18.40;33.71;101168.47;4959907;28;20049;-79
2022/05/25 05:44:58;;;;;;;6.68;5.82;;;;;;;18.15;33.26;101177.19;4965705;28;20054;-80
2022/05/25 05:47:31;;;;;;;8.90;6.43;;;;;;;18.97;32.24;101169.00;4963848;28;20039;-78
2022/05/25 05:49:56;;;;;;;6.93;4.95;;;;;;;18.98;32.29;101174.16;4958573;28;20031;-79
2022/05/25 05:52:22;;;;;;;7.22;5.15;;;;;;;18.00;34.71;101176.41;4944018;28;20454;-80
2022/05/25 05:54:48;;;;;;;6.82;5.38;;;;;;;18.65;33.53;101180.00;4965649;28;20107;-78
2022/05/25 05:57:15;;;;;;;5.70;5.10;;;;;;;19.89;31.40;101187.00;4957973;28;20059;-81
2022/05/25 05:59:41;;;;;;;7.30;5.35;;;;;;;18.96;31.85;101191.13;4960758;28;20514;-77
2022/05/25 06:02:07;;;;;;;6.90;5.30;;;;;;;18.23;34.30;101182.00;4973219;28;20042;-80
2022/05/25 06:04:33;;;;;;;6.93;5.03;;;;;;;20.65;30.40;101176.81;4961947;28;20022;-80
2022/05/25 06:06:59;;;;;;;9.40;5.30;;;;;;;18.47;32.19;101188.28;4960835;28;20023;-82
2022/05/25 06:09:24;;;;;;;8.88;5.53;;;;;;;18.97;31.83;101184.88;4951286;28;20042;-78
2022/05/25 06:11:50;;;;;;;9.50;5.28;;;;;;;19.86;30.00;101183.72;4937662;28;20478;-79
2022/05/25 06:14:16;;;;;;;7.68;5.30;;;;;;;20.73;29.72;101186.84;4951137;28;20668;-80
2022/05/25 06:19:33;;;;;;;7.13;4.88;;;;;;;21.75;27.76;101193.69;4963213;28;20047;-81
2022/05/25 06:22:14;;;;;;;7.03;4.30;;;;;;;22.14;27.85;101188.72;4976785;28;20023;-81
2022/05/25 06:24:42;;;;;;;8.32;5.35;;;;;;;21.49;28.03;101195.00;4968059;28;20032;-79
2022/05/25 06:27:10;;;;;;;5.40;4.05;;;;;;;22.29;27.96;101191.91;4948732;28;20062;-80
2022/05/25 06:29:37;;;;;;;4.35;3.90;;;;;;;20.35;28.65;101198.63;4966066;28;20034;-79
2022/05/25 06:32:04;;;;;;;4.70;4.18;;;;;;;20.27;29.57;101199.19;4964230;28;20869;-82
2022/05/25 06:34:30;;;;;;;6.00;4.85;;;;;;;20.77;28.40;101195.41;4960997;28;20042;-77
2022/05/25 06:36:56;;;;;;;5.90;4.30;;;;;;;21.19;28.16;101201.81;4967767;28;20073;-77
2022/05/25 06:39:21;;;;;;;8.60;4.65;;;;;;;20.83;28.93;101205.56;4985264;28;20189;-78
2022/05/25 06:41:47;;;;;;;4.88;4.13;;;;;;;21.14;31.29;101204.00;4954127;28;20042;-79
2022/05/25 06:44:12;;;;;;;4.78;3.50;;;;;;;22.78;28.53;101202.81;4967350;28;20419;-78
2022/05/25 06:46:38;;;;;;;4.57;2.97;;;;;;;23.52;25.90;101204.31;4975552;28;20093;-81
2022/05/25 06:49:04;;;;;;;5.82;3.65;;;;;;;22.45;26.88;101199.44;4978844;28;20035;-78
2022/05/25 06:51:33;;;;;;;5.15;3.50;;;;;;;23.79;25.99;101209.00;4970123;28;20039;-75
2022/05/25 06:53:59;;;;;;;6.03;3.83;;;;;;;24.10;24.96;101207.03;4978571;28;20046;-79
2022/05/25 06:56:25;;;;;;;4.43;3.95;;;;;;;23.67;25.18;101213.59;4966988;28;20038;-79
2022/05/25 06:58:52;;;;;;;6.65;3.55;;;;;;;23.13;28.09;101209.56;4967533;28;20278;-76
2022/05/25 07:01:19;;;;;;;4.07;3.00;;;;;;;23.95;24.61;101211.13;4955938;28;20043;-79
2022/05/25 07:03:45;;;;;;;5.10;3.58;;;;;;;20.31;30.11;101213.09;4953910;28;20408;-79
2022/05/25 07:06:12;;;;;;;3.88;3.30;;;;;;;20.42;31.57;101221.09;4957287;28;20088;-79
2022/05/25 07:08:38;;;;;;;4.43;3.15;;;;;;;19.62;31.89;101211.09;4946832;28;20070;-79
2022/05/25 07:11:04;;;;;;;6.47;3.63;;;;;;;20.56;29.70;101217.38;4951890;28;20047;-81
2022/05/25 07:13:30;;;;;;;4.93;2.60;;;;;;;21.34;28.13;101218.34;4964551;28;20051;-80
2022/05/25 07:15:58;;;;;;;4.22;3.40;;;;;;;20.08;30.48;101223.63;4958243;28;20624;-78
2022/05/25 07:18:25;;;;;;;6.78;3.05;;;;;;;20.73;30.04;101211.59;4965370;28;20039;-79
2022/05/25 07:20:50;;;;;;;6.38;2.80;;;;;;;18.70;32.86;101217.59;4967688;28;20050;-78
2022/05/25 07:23:16;;;;;;;5.78;3.60;;;;;;;19.26;31.21;101223.38;4957281;28;20047;-78
2022/05/25 07:25:41;;;;;;;4.53;4.00;;;;;;;21.30;30.09;101220.41;4967122;28;20033;-78
2022/05/25 07:28:07;;;;;;;6.18;4.53;;;;;;;21.96;27.92;101219.53;4936659;28;20142;-79
2022/05/25 07:30:33;;;;;;;5.78;3.28;;;;;;;22.46;26.46;101217.09;4957072;28;20046;-81
2022/05/25 07:32:59;;;;;;;4.72;3.65;;;;;;;20.62;29.12;101218.69;4959397;28;20360;-79
2022/05/25 07:35:25;;;;;;;4.47;3.60;;;;;;;21.77;28.09;101221.03;4957162;28;20625;-80
2022/05/25 07:37:53;;;;;;;3.00;2.50;;;;;;;20.41;29.12;101226.50;4958426;28;20125;-80
2022/05/25 07:40:25;;;;;;;4.80;2.97;;;;;;;20.33;30.88;101222.63;4955510;28;20043;-77
2022/05/25 07:42:56;;;;;;;5.53;3.30;;;;;;;19.40;31.36;101225.03;4972558;28;20043;-78
2022/05/25 07:45:23;;;;;;;4.10;3.60;;;;;;;20.53;30.43;101223.75;4955061;28;20158;-75
2022/05/25 07:47:53;;;;;;;5.18;3.80;;;;;;;23.44;26.43;101221.03;4959840;28;20027;-76
2022/05/25 07:50:21;;;;;;;5.72;2.67;;;;;;;21.52;28.12;101224.03;4967165;28;20034;-76
2022/05/25 07:52:54;;;;;;;4.10;3.58;;;;;;;23.46;26.35;101212.91;4987244;28;20267;-79
2022/05/25 07:55:19;;;;;;;6.30;2.42;;;;;;;23.66;25.25;101216.44;4964751;28;20035;-82
2022/05/25 07:57:45;;;;;;;4.00;2.88;;;;;;;22.69;26.20;101214.28;4975834;28;20402;-78
2022/05/25 08:00:12;;;;;;;3.63;1.92;;;;;;;22.46;26.20;101219.75;4997364;28;20049;-78
2022/05/25 08:05:48;;;;;;;3.42;2.63;;;;;;;20.29;28.79;101228.28;4975205;28;20031;-79
2022/05/25 08:08:16;;;;;;;3.42;2.10;;;;;;;22.21;26.28;101220.16;4990525;28;20065;-78
2022/05/25 08:10:44;;;;;;;5.43;2.63;;;;;;;22.35;26.01;101218.00;4974976;28;20043;-78
2022/05/25 08:13:14;;;;;;;3.88;1.95;;;;;;;20.99;28.45;101224.66;4965987;28;20168;-79
2022/05/25 08:15:42;;;;;;;3.97;2.50;;;;;;;19.19;31.14;101231.88;4970831;28;20042;-80
2022/05/25 08:18:16;;;;;;;2.97;2.15;;;;;;;21.04;27.08;101229.59;4991162;28;20034;-77
2022/05/25 08:20:45;;;;;;;2.50;2.08;;;;;;;21.92;26.85;101231.38;4965114;28;20046;-79
2022/05/25 08:23:14;;;;;;;4.55;1.85;;;;;;;20.57;28.89;101242.94;4979234;28;20054;-77
2022/05/25 08:25:42;;;;;;;2.75;2.05;;;;;;;20.47;27.88;101232.19;4957972;28;20066;-79
2022/05/25 08:28:07;;;;;;;3.58;1.48;;;;;;;22.24;26.43;101230.53;4973210;28;20038;-78
2022/05/25 08:30:37;;;;;;;5.25;2.40;;;;;;;20.71;28.01;101234.78;4990363;28;20097;-79
2022/05/25 08:33:03;;;;;;;2.63;1.73;;;;;;;20.05;29.03;101237.09;4959355;28;20034;-80
2022/05/25 08:35:32;;;;;;;2.15;1.50;;;;;;;19.71;28.33;101229.00;4981519;28;20054;-78
2022/05/25 08:37:59;;;;;;;1.52;1.38;;;;;;;21.97;26.00;101219.38;4975393;28;20054;-75
2022/05/25 08:40:28;;;;;;;1.48;1.30;;;;;;;22.30;25.33;101214.06;4972725;28;20516;-79
2022/05/25 08:43:02;;;;;;;1.80;1.45;;;;;;;20.00;28.03;101225.16;4974956;28;20051;-78
2022/05/25 08:45:34;;;;;;;2.63;1.65;;;;;;;21.06;28.10;101222.34;4984441;28;20026;-80
2022/05/25 08:48:01;;;;;;;3.53;1.50;;;;;;;23.03;24.55;101222.00;4968149;28;20042;-78
2022/05/25 08:50:31;;;;;;;2.92;1.63;;;;;;;20.69;27.36;101228.72;4972782;28;20035;-77
2022/05/25 08:53:00;;;;;;;5.25;1.20;;;;;;;19.86;28.87;101240.28;4972036;28;20556;-81
2022/05/25 08:55:44;;;;;;;3.90;2.40;;;;;;;21.30;26.98;101220.41;4958176;28;20262;-78
2022/05/25 08:58:11;;;;;;;2.45;1.65;;;;;;;20.87;27.26;101229.13;4969774;28;20074;-78
2022/05/25 09:00:37;;;;;;;3.80;1.48;;;;;;;19.64;28.75;101234.88;4962415;28;20038;-79
2022/05/25 09:03:37;;;;;;;2.28;1.50;;;;;;;18.93;30.01;101237.22;4990307;28;20050;-79
2022/05/25 09:06:20;;;;;;;3.42;1.52;;;;;;;18.34;31.17;101227.13;4978926;28;20420;-80
2022/05/25 09:08:58;;;;;;;1.98;1.60;;;;;;;20.80;27.31;101227.91;4986111;28;20045;-76
2022/05/25 09:11:30;;;;;;;5.88;1.45;;;;;;;23.25;26.06;101219.13;4973765;28;20109;-79
2022/05/25 09:14:02;;;;;;;4.80;1.20;;;;;;;21.91;24.89;101224.38;4984091;28;20619;-77
2022/05/25 09:16:30;;;;;;;1.48;0.93;;;;;;;21.92;26.73;101226.06;4981597;28;20041;-77
2022/05/25 09:19:22;;;;;;;2.30;1.00;;;;;;;21.65;26.37;101235.34;4965031;28;20035;-80
2022/05/25 09:21:54;;;;;;;2.20;1.52;;;;;;;20.11;27.43;101236.66;4962832;28;20059;-78
2022/05/25 09:24:22;;;;;;;2.92;1.30;;;;;;;18.67;29.10;101239.81;4994021;28;20047;-78
2022/05/25 09:26:49;;;;;;;2.50;1.13;;;;;;;18.15;31.37;101235.38;4984726;28;20059;-81
2022/05/25 09:29:15;;;;;;;2.08;1.50;;;;;;;16.67;32.70;101241.16;4982120;28;20046;-77
2022/05/25 09:31:51;;;;;;;3.97;1.50;;;;;;;17.79;31.09;101236.03;4979781;28;20039;-79
2022/05/25 09:35:06;;;;;;;1.90;1.05;;;;;;;19.94;28.84;101231.75;4978282;28;20033;-78
2022/05/25 09:37:42;;;;;;;2.95;1.33;;;;;;;18.47;28.73;101235.03;4949718;28;20054;-78
2022/05/25 09:40:14;;;;;;;3.83;1.38;;;;;;;19.38;29.83;101237.56;4982514;28;20054;-79
2022/05/25 09:42:40;;;;;;;2.63;1.42;;;;;;;19.53;30.42;101240.91;4980734;28;20047;-77
2022/05/25 09:45:13;;;;;;;4.45;1.52;;;;;;;19.96;28.77;101236.94;4991212;28;20030;-77
2022/05/25 09:47:51;;;;;;;1.73;1.00;;;;;;;18.79;28.69;101232.84;4975238;28;20313;-77
2022/05/25 09:50:41;;;;;;;1.55;1.40;;;;;;;18.73;30.51;101233.28;4974730;28;20045;-79
2022/05/25 09:53:11;;;;;;;1.70;1.15;;;;;;;18.44;30.62;101233.47;4957177;28;20102;-80
2022/05/25 09:55:43;;;;;;;3.70;1.15;;;;;;;17.70;30.25;101244.56;4970472;28;20037;-75
2022/05/25 09:58:20;;;;;;;3.38;1.00;;;;;;;17.23;31.68;101244.78;4982126;28;20043;-78
2022/05/25 10:01:20;;;;;;;2.30;1.02;;;;;;;18.23;30.81;101237.56;4971866;28;20031;-76
2022/05/25 10:03:46;;;;;;;1.27;0.85;;;;;;;18.67;29.83;101246.91;4998579;28;20039;-78
2022/05/25 10:06:23;;;;;;;2.17;0.90;;;;;;;18.80;29.70;101245.13;4970905;28;20066;-78
2022/05/25 10:09:11;;;;;;;2.28;1.02;;;;;;;18.38;29.83;101244.44;4991047;28;20037;-80
2022/05/25 10:11:45;;;;;;;3.05;0.60;;;;;;;18.79;29.79;101243.44;4988143;28;20046;-77
2022/05/25 10:14:29;;;;;;;3.03;0.85;;;;;;;17.24;30.91;101250.91;4998422;28;20050;-74
2022/05/25 10:17:28;;;;;;;2.85;0.80;;;;;;;16.23;32.23;101257.81;4978256;28;20125;-77
2022/05/25 10:19:56;;;;;;;3.67;1.08;;;;;;;16.89;31.76;101245.16;4977656;28;20086;-78
2022/05/25 10:22:33;;;;;;;2.00;0.98;;;;;;;17.44;31.64;101245.22;4967540;28;20047;-76
2022/05/25 10:25:09;;;;;;;1.23;0.60;;;;;;;18.69;29.70;101240.56;4984961;28;20027;-77
2022/05/25 10:27:39;;;;;;;3.40;0.80;;;;;;;18.20;28.72;101246.53;4978967;28;20051;-78
2022/05/25 10:36:52;;;;;;;1.55;0.60;;;;;;;18.39;28.97;101242.69;4968940;28;20051;-78
2022/05/25 10:39:30;;;;;;;1.10;0.70;;;;;;;18.82;28.86;101240.56;4963951;28;20054;-79
2022/05/25 10:42:18;;;;;;;1.30;0.63;;;;;;;18.03;29.53;101234.41;4973045;28;20057;-78
2022/05/25 10:44:54;;;;;;;2.70;0.80;;;;;;;18.76;29.06;101230.41;4971173;28;20035;-79
2022/05/25 10:47:38;;;;;;;3.15;1.05;;;;;;;19.78;27.95;101241.81;4972548;28;20057;-77
2022/05/25 10:50:11;;;;;;;2.70;0.90;;;;;;;19.71;28.49;101234.28;4976926;28;20027;-78
2022/05/25 10:52:42;;;;;;;1.48;0.70;;;;;;;19.30;27.83;101230.16;4978620;28;20043;-79
2022/05/25 10:55:08;;;;;;;;;;;;;;;18.37;28.65;101224.25;4977243;28;20042;-77
2022/05/25 10:57:57;;;;;;;7.22;1.02;;;;;;;19.26;28.12;101218.09;4959598;28;19981;-76
2022/05/25 11:00:53;;;;;;;2.88;1.80;;;;;;;18.71;29.35;101219.28;4984203;28;20031;-78
2022/05/25 11:03:51;;;;;;;1.67;0.68;;;;;;;18.09;28.59;101216.44;4964084;28;20138;-80
2022/05/25 11:06:45;;;;;;;2.10;0.85;;;;;;;17.42;30.01;101227.75;4963444;28;20035;-78
2022/05/25 11:09:44;;;;;;;2.00;0.80;;;;;;;17.19;31.51;101214.22;4976708;28;20047;-80
2022/05/25 11:12:22;;;;;;;3.20;0.70;;;;;;;17.26;32.27;101217.31;4998423;28;20262;-79
2022/05/25 11:15:03;;;;;;;1.77;0.65;;;;;;;17.99;31.01;101214.41;4979983;28;20043;-78
2022/05/25 11:17:30;;;;;;;1.63;1.30;;;;;;;18.93;30.37;101212.53;4974276;28;20087;-77
2022/05/25 11:20:14;;;;;;;5.40;1.67;;;;;;;19.20;29.27;101204.44;4983862;28;20055;-78
2022/05/25 11:23:09;;;;;;;1.83;0.98;;;;;;;19.07;29.45;101212.41;4997138;28;20051;-76
2022/05/25 11:25:47;;;;;;;1.60;1.00;;;;;;;20.05;28.15;101209.72;4964878;28;20031;-77
2022/05/25 11:28:15;;;;;;;2.50;0.68;;;;;;;20.71;26.54;101181.66;4990021;28;20118;-78
2022/05/25 11:31:02;;;;;;;2.13;1.00;;;;;;;20.57;27.79;101197.78;4980526;28;20597;-76
2022/05/25 11:33:52;;;;;;;2.15;1.15;;;;;;;21.02;26.10;101187.22;4981411;28;20051;-75
2022/05/25 11:36:50;;;;;;;2.97;1.20;;;;;;;20.76;27.70;101189.25;4999525;28;20027;-78
2022/05/25 11:39:53;;;;;;;4.05;1.20;;;;;;;20.93;27.19;101187.94;4980631;28;20047;-76
2022/05/25 11:42:45;;;;;;;2.55;0.75;;;;;;;19.86;27.69;101183.72;4974149;28;20057;-78
2022/05/25 11:45:48;;;;;;;3.88;1.15;;;;;;;20.02;26.92;101178.97;4982988;28;20065;-78
2022/05/25 11:48:36;;;;;;;2.55;1.20;;;;;;;20.39;27.08;101197.41;4904965;28;20052;-80
2022/05/25 11:51:31;;;;;;;2.60;1.50;;;;;;;18.45;29.53;101190.19;4992036;28;20039;-79
2022/05/25 11:54:31;;;;;;;1.33;1.02;;;;;;;19.13;30.21;101185.47;4893184;29;20111;-80
2022/05/25 11:57:03;;;;;;;2.38;1.15;;;;;;;19.48;29.23;101184.75;4929143;28;20047;-78
2022/05/25 11:59:54;;;;;;;2.35;1.20;;;;;;;18.47;29.75;101184.75;4980703;28;20141;-79
2022/05/25 12:02:34;;;;;;;2.05;0.70;;;;;;;19.22;29.01;101190.13;4973334;28;20043;-78
2022/05/25 12:05:21;;;;;;;4.22;1.13;;;;;;;17.46;31.39;101179.06;4987373;28;20122;-78
2022/05/25 12:07:50;;;;;;;3.92;1.30;;;;;;;18.28;29.56;101187.84;4990050;28;20056;-78
2022/05/25 12:10:15;;;;;;;2.55;1.10;;;;;;;19.15;29.35;101178.28;4980796;28;20117;-79
2022/05/25 12:12:53;;;;;;;2.05;0.77;;;;;;;18.55;28.49;101178.97;4988053;28;20039;-78